Time;durP1;ratioP1;P1;durP2;ratioP2;P2;SDS_P1;SDS_P2;PMS_P1;PMS_P2;Temp;Humidity;BMP_temperature;BMP_pressure;BME280_temperature;BME280_humidity;BME280_pressure;Samples;Min_cycle;Max_cycle;Signal;HPM_P1;HPM_P2
2022/02/05 00:00:35;;;;;;;41.60;18.63;;;;;;;-5.59;69.63;99710.34;5051791;28;20044;-51
2022/02/05 00:05:43;;;;;;;41.17;19.45;;;;;;;-5.59;68.80;99712.97;5050105;28;20087;-50
2022/02/05 00:41:23;;;;;;;43.13;19.48;;;;;;;-5.55;68.67;99714.63;5050626;28;20477;-53
2022/02/05 00:43:16;;;;;;;46.45;19.52;;;;;;;-5.44;68.80;99727.50;5042109;28;20047;-51
2022/02/05 00:45:46;;;;;;;48.83;20.77;;;;;;;-5.67;68.98;99679.19;5050017;28;20032;-49
2022/02/05 00:48:13;;;;;;;47.88;21.02;;;;;;;-5.40;68.72;99730.06;5051705;28;20396;-49
2022/02/05 00:50:42;;;;;;;43.22;20.80;;;;;;;-5.41;68.44;99717.88;5051572;28;20119;-54
2022/02/05 00:53:15;;;;;;;48.13;21.17;;;;;;;-5.33;68.22;99713.38;5051611;28;20072;-54
2022/02/05 00:55:48;;;;;;;47.90;19.92;;;;;;;-5.26;68.45;99715.91;5052301;28;20057;-53
2022/02/05 00:58:13;;;;;;;41.63;19.50;;;;;;;-5.26;68.29;99715.91;5049487;28;20439;-55
2022/02/05 01:00:39;;;;;;;44.50;19.08;;;;;;;-5.21;67.76;99719.31;5051167;28;20067;-50
2022/02/05 01:03:05;;;;;;;45.17;19.90;;;;;;;-5.24;67.70;99711.53;5051622;28;20144;-54
2022/02/05 01:05:34;;;;;;;48.42;19.80;;;;;;;-5.20;67.68;99713.19;5051165;28;20044;-51
2022/02/05 01:07:59;;;;;;;45.58;20.88;;;;;;;-5.37;67.79;99676.97;5049545;28;20033;-52
2022/02/05 01:10:26;;;;;;;45.40;20.95;;;;;;;-5.21;67.54;99707.09;5051443;28;20037;-54
2022/02/05 01:12:57;;;;;;;43.20;20.00;;;;;;;-5.18;68.13;99708.81;5051421;28;20032;-51
2022/02/05 01:15:28;;;;;;;50.40;22.00;;;;;;;-5.18;68.10;99708.81;5050701;28;20382;-51
2022/02/05 01:18:01;;;;;;;43.40;20.80;;;;;;;-5.17;67.68;99707.06;5049455;28;20508;-55
2022/02/05 01:23:06;;;;;;;43.95;20.55;;;;;;;-5.18;67.64;99698.38;5050868;28;20025;-52
2022/02/05 01:25:36;;;;;;;45.55;20.63;;;;;;;-5.28;67.71;99684.63;5050997;28;20413;-50
2022/02/05 01:28:10;;;;;;;46.45;20.55;;;;;;;-5.21;67.48;99698.41;5049753;28;20112;-52
2022/02/05 01:30:40;;;;;;;45.92;20.40;;;;;;;-5.18;67.89;99698.38;5051208;28;20033;-54
2022/02/05 01:33:26;;;;;;;48.03;20.77;;;;;;;-5.15;68.02;99700.06;5050881;28;20098;-51
2022/02/05 02:12:12;;;;;;;41.87;20.37;;;;;;;-4.49;66.75;99683.09;5128797;28;20122;-51
2022/02/05 02:22:57;;;;;;;46.03;21.05;;;;;;;-4.45;65.93;99675.19;5128151;28;20028;-52
2022/02/05 02:28:20;;;;;;;42.75;21.05;;;;;;;-4.42;65.73;99664.66;5127552;28;20031;-53
2022/02/05 02:31:04;;;;;;;46.90;20.70;;;;;;;-4.42;65.95;99648.97;5127704;28;20066;-59
2022/02/05 02:33:34;;;;;;;44.55;21.00;;;;;;;-4.34;65.04;99655.75;5127213;28;20034;-51
2022/02/05 02:35:59;;;;;;;45.53;21.48;;;;;;;-4.34;65.13;99662.72;5127770;28;20396;-53
2022/02/05 02:38:34;;;;;;;39.70;20.83;;;;;;;-4.43;65.29;99642.03;5127442;28;20088;-49
2022/02/05 02:41:06;;;;;;;48.43;21.40;;;;;;;-4.40;65.39;99647.19;5127419;28;20038;-49
2022/02/05 02:43:33;;;;;;;45.65;21.80;;;;;;;-4.38;65.15;99659.34;5127610;28;20046;-51
2022/02/05 02:45:59;;;;;;;50.58;23.38;;;;;;;-4.40;65.72;99655.03;5127263;28;20055;-53
2022/02/05 02:48:26;;;;;;;48.67;23.80;;;;;;;-4.42;65.55;99652.47;5127311;28;20058;-52
2022/02/05 02:58:53;;;;;;;47.83;23.60;;;;;;;-4.69;66.20;99612.09;5126854;28;20056;-51
2022/02/05 03:01:20;;;;;;;46.58;21.45;;;;;;;-4.50;66.37;99644.78;5127065;27;20023;-56
2022/02/05 03:03:46;;;;;;;50.67;22.58;;;;;;;-4.47;65.97;99642.09;5121121;27;20039;-49
2022/02/05 03:06:13;;;;;;;47.85;22.77;;;;;;;-4.48;66.07;99652.59;5114421;28;20062;-49
2022/02/05 03:08:39;;;;;;;48.90;22.73;;;;;;;-4.52;66.43;99641.34;5113548;28;20215;-50
2022/02/05 03:11:05;;;;;;;47.47;22.92;;;;;;;-4.43;65.85;99649.88;5112762;28;20039;-52
2022/02/05 03:13:30;;;;;;;45.28;22.40;;;;;;;-4.42;65.67;99646.38;5113699;28;20028;-53
2022/02/05 03:15:56;;;;;;;49.10;23.92;;;;;;;-4.49;65.71;99636.06;5113691;28;20472;-52
2022/02/05 03:18:50;;;;;;;49.35;22.92;;;;;;;-4.43;65.95;99661.22;5112799;28;20024;-50
2022/02/05 03:21:16;;;;;;;43.83;21.55;;;;;;;-4.41;65.84;99653.31;5113692;28;20557;-53
2022/02/05 03:23:41;;;;;;;49.60;24.13;;;;;;;-4.43;65.84;99650.75;5114422;28;20031;-52
2022/02/05 03:26:06;;;;;;;51.30;23.38;;;;;;;-4.46;65.56;99658.66;5112744;28;20027;-48
2022/02/05 03:28:36;;;;;;;44.40;22.70;;;;;;;-4.48;65.97;99658.69;5113609;28;20035;-49
2022/02/05 03:31:02;;;;;;;47.05;23.33;;;;;;;-4.49;65.65;99656.09;5113426;28;20031;-55
2022/02/05 03:33:27;;;;;;;50.83;22.92;;;;;;;-4.77;66.06;99620.97;5114350;28;20035;-53
2022/02/05 03:35:53;;;;;;;44.53;22.05;;;;;;;-4.63;66.25;99645.94;5114186;28;20537;-52
2022/02/05 03:38:18;;;;;;;49.05;22.95;;;;;;;-4.54;66.13;99658.81;5113565;28;20027;-51
2022/02/05 03:40:44;;;;;;;51.25;22.35;;;;;;;-4.53;66.21;99660.53;5113782;28;20024;-52
2022/02/05 03:43:09;;;;;;;49.88;22.23;;;;;;;-4.51;65.84;99663.09;5114088;28;20412;-52
2022/02/05 03:45:35;;;;;;;46.13;20.95;;;;;;;-4.44;65.63;99666.44;5114082;28;20020;-52
2022/02/05 03:48:01;;;;;;;45.63;22.10;;;;;;;-4.44;65.85;99666.44;5113737;28;20031;-51
2022/02/05 03:50:28;;;;;;;52.13;23.27;;;;;;;-4.41;65.48;99661.16;5113390;27;20523;-50
2022/02/05 03:52:53;;;;;;;51.13;22.67;;;;;;;-4.41;65.45;99653.31;5111523;28;20028;-51
2022/02/05 03:55:19;;;;;;;48.80;22.20;;;;;;;-4.45;65.80;99651.66;5113550;28;20467;-53
2022/02/05 03:57:44;;;;;;;50.35;22.30;;;;;;;-4.41;65.49;99663.78;5113079;28;20428;-51
2022/02/05 04:00:11;;;;;;;52.47;21.88;;;;;;;-4.41;65.25;99661.16;5112947;28;20054;-50
2022/02/05 04:02:38;;;;;;;47.60;21.58;;;;;;;-4.43;65.30;99665.56;5111734;28;20127;-50
2022/02/05 04:05:05;;;;;;;53.50;22.52;;;;;;;-4.42;65.04;99672.50;5113876;28;20057;-53
2022/02/05 04:07:35;;;;;;;55.95;23.10;;;;;;;-4.43;65.61;99668.19;5112969;28;20047;-53
2022/02/05 04:10:03;;;;;;;51.08;21.98;;;;;;;-4.44;65.37;99669.06;5112920;28;20035;-50
2022/02/05 04:17:58;;;;;;;53.70;23.05;;;;;;;-4.42;65.51;99660.31;5108656;28;20102;-54
2022/02/05 04:20:24;;;;;;;47.40;21.83;;;;;;;-4.44;65.50;99659.50;5112330;28;20120;-50
2022/02/05 04:22:50;;;;;;;50.97;22.73;;;;;;;-4.44;65.48;99661.22;5110038;28;20020;-51
2022/02/05 04:25:15;;;;;;;50.17;22.10;;;;;;;-4.44;64.92;99653.38;5092512;28;20039;-57
2022/02/05 04:27:41;;;;;;;57.22;23.38;;;;;;;-4.51;65.23;99650.03;5092177;28;20020;-54
2022/02/05 04:30:07;;;;;;;50.20;21.83;;;;;;;-4.47;65.40;99657.78;5091872;28;20024;-53
2022/02/05 04:32:33;;;;;;;50.53;21.73;;;;;;;-4.56;65.03;99644.06;5090889;28;20365;-52
2022/02/05 04:34:58;;;;;;;52.03;21.45;;;;;;;-4.71;65.38;99613.91;5093005;28;20036;-51
2022/02/05 04:37:26;;;;;;;56.40;24.08;;;;;;;-4.52;65.10;99659.66;5091089;28;20104;-55
2022/02/05 04:40:06;;;;;;;51.47;22.75;;;;;;;-4.53;65.19;99664.88;5092478;28;20036;-56
2022/02/05 04:42:44;;;;;;;50.85;22.63;;;;;;;-4.55;65.19;99670.16;5091680;28;20028;-50
2022/02/05 04:58:08;;;;;;;48.00;21.45;;;;;;;-4.66;64.79;99672.13;5091140;28;20031;-52
2022/02/05 05:03:11;;;;;;;50.85;21.20;;;;;;;-4.76;64.71;99666.22;5091909;28;20097;-51
2022/02/05 05:05:45;;;;;;;46.45;21.38;;;;;;;-4.79;64.28;99667.16;5092567;28;20519;-50
2022/02/05 05:21:38;;;;;;;44.13;19.60;;;;;;;-4.91;64.80;99655.22;5090407;28;20031;-49
2022/02/05 05:24:04;;;;;;;52.55;21.48;;;;;;;-4.85;64.83;99664.66;5090934;28;20024;-53
2022/02/05 05:26:30;;;;;;;42.88;20.20;;;;;;;-4.86;64.74;99668.16;5090827;28;20024;-52
2022/02/05 05:28:55;;;;;;;45.10;20.15;;;;;;;-4.82;64.86;99669.84;5091706;28;20054;-53
2022/02/05 05:31:21;;;;;;;48.67;20.83;;;;;;;-4.81;64.52;99660.25;5091528;28;20369;-51
2022/02/05 05:33:46;;;;;;;47.70;21.40;;;;;;;-4.82;64.67;99653.31;5090732;28;20114;-53
2022/02/05 05:36:11;;;;;;;46.00;20.88;;;;;;;-4.93;64.32;99635.22;5091616;28;20035;-51
2022/02/05 05:38:37;;;;;;;52.05;21.05;;;;;;;-4.81;64.54;99650.66;5092005;28;20423;-53
2022/02/05 05:41:02;;;;;;;49.95;21.15;;;;;;;-4.77;64.26;99654.94;5091372;28;20083;-51
2022/02/05 05:43:50;;;;;;;46.70;20.98;;;;;;;-4.73;64.65;99645.25;5090918;28;20032;-51
2022/02/05 05:48:57;;;;;;;49.63;20.70;;;;;;;-4.69;64.19;99644.34;5092752;28;20473;-51
2022/02/05 05:51:23;;;;;;;41.78;19.40;;;;;;;-4.67;64.01;99646.91;5091276;28;20103;-51
2022/02/05 05:53:49;;;;;;;48.53;20.77;;;;;;;-4.72;64.63;99635.69;5090765;28;20111;-52
2022/02/05 05:56:16;;;;;;;47.90;20.88;;;;;;;-4.64;64.42;99641.59;5093828;28;20106;-51
2022/02/05 05:58:42;;;;;;;45.97;20.60;;;;;;;-4.59;64.54;99644.13;5110423;28;20463;-50
2022/02/05 06:01:09;;;;;;;46.15;19.92;;;;;;;-4.52;64.18;99641.34;5111520;28;20108;-55
2022/02/05 06:03:34;;;;;;;49.35;21.20;;;;;;;-4.52;64.11;99636.13;5093162;28;20092;-51
2022/02/05 06:06:00;;;;;;;46.85;22.02;;;;;;;-4.48;63.19;99639.53;5111241;28;20039;-51
2022/02/05 06:08:25;;;;;;;45.75;21.13;;;;;;;-4.48;63.53;99635.16;5110347;28;20501;-51
2022/02/05 06:10:51;;;;;;;50.92;20.45;;;;;;;-4.48;63.91;99637.78;5111458;28;20073;-53
2022/02/05 06:13:16;;;;;;;46.03;20.98;;;;;;;-4.49;63.68;99636.06;5110924;28;20045;-50
2022/02/05 06:15:43;;;;;;;52.17;22.25;;;;;;;-4.48;63.26;99632.56;5110855;28;20024;-50
2022/02/05 06:18:09;;;;;;;47.42;21.08;;;;;;;-4.44;63.53;99632.47;5111151;28;20031;-52
2022/02/05 06:20:36;;;;;;;54.78;23.05;;;;;;;-4.47;63.03;99623.81;5110891;28;20031;-51
2022/02/05 06:23:02;;;;;;;51.22;22.00;;;;;;;-4.50;62.60;99616.06;5110807;28;20027;-52
2022/02/05 06:25:31;;;;;;;49.50;21.85;;;;;;;-4.48;63.08;99627.31;5110813;28;20513;-50
2022/02/05 06:27:57;;;;;;;45.60;21.33;;;;;;;-4.48;63.28;99632.56;5109744;28;20027;-50
2022/02/05 06:30:22;;;;;;;45.17;20.98;;;;;;;-4.65;63.26;99603.31;5111133;28;20468;-53
2022/02/05 06:32:48;;;;;;;44.65;20.58;;;;;;;-4.43;63.13;99629.84;5111143;28;20053;-51
2022/02/05 06:35:13;;;;;;;48.20;22.35;;;;;;;-4.32;62.16;99651.38;5111089;28;20061;-51
2022/02/05 06:37:39;;;;;;;53.83;21.80;;;;;;;-4.24;62.41;99634.63;5091053;28;20040;-54
2022/02/05 06:40:06;;;;;;;52.90;22.23;;;;;;;-4.03;62.83;99639.38;5092874;28;20496;-53
2022/02/05 06:42:32;;;;;;;50.95;22.95;;;;;;;-3.71;61.64;99644.72;5094680;28;20057;-52
2022/02/05 06:44:57;;;;;;;49.58;22.58;;;;;;;-3.37;60.39;99637.78;5094892;28;20357;-52
2022/02/05 06:47:23;;;;;;;50.60;23.23;;;;;;;-3.20;59.64;99637.31;5095807;28;20020;-51
2022/02/05 06:49:48;;;;;;;46.97;21.65;;;;;;;-3.12;59.40;99637.97;5097129;28;20036;-49
2022/02/05 06:52:13;;;;;;;48.70;21.98;;;;;;;-3.15;59.42;99642.44;5114602;28;20404;-54
2022/02/05 06:54:39;;;;;;;45.47;21.83;;;;;;;-3.46;59.00;99590.00;5114309;28;20032;-55
2022/02/05 06:57:05;;;;;;;44.78;21.30;;;;;;;-3.19;59.07;99637.28;5113887;28;20392;-50
2022/02/05 06:59:30;;;;;;;46.90;21.25;;;;;;;-3.19;59.55;99631.16;5114235;28;20027;-51
2022/02/05 07:01:56;;;;;;;47.95;21.58;;;;;;;-3.09;58.45;99624.81;5114306;28;20035;-51
2022/02/05 07:04:24;;;;;;;50.00;21.77;;;;;;;-2.99;58.67;99614.06;5114771;28;20532;-54
2022/02/05 07:06:53;;;;;;;47.35;21.25;;;;;;;-2.98;58.44;99627.13;5111338;28;20038;-50
2022/02/05 07:09:20;;;;;;;49.85;20.73;;;;;;;-3.05;58.57;99608.09;5113907;28;20035;-52
2022/02/05 07:11:46;;;;;;;48.83;21.83;;;;;;;-3.10;58.06;99615.22;5114062;28;20532;-54
2022/02/05 07:14:14;;;;;;;47.08;21.92;;;;;;;-3.26;58.36;99621.78;5114865;28;20484;-56
2022/02/05 07:16:47;;;;;;;47.83;21.23;;;;;;;-3.42;58.13;99613.47;5112326;28;20034;-55
2022/02/05 07:21:44;;;;;;;48.45;21.77;;;;;;;-3.60;59.56;99605.19;5113929;28;20024;-57
2022/02/05 07:24:36;;;;;;;47.15;21.73;;;;;;;-3.43;59.38;99617.00;5114367;28;20032;-56
2022/02/05 07:29:45;;;;;;;47.45;21.92;;;;;;;-3.06;57.83;99589.78;5112560;28;20031;-59
2022/02/05 07:32:11;;;;;;;47.45;21.65;;;;;;;-2.70;57.48;99618.47;5113794;28;20046;-57
2022/02/05 07:34:36;;;;;;;46.22;21.23;;;;;;;-2.47;56.84;99623.00;5114403;28;20071;-58
2022/02/05 07:37:04;;;;;;;45.85;21.45;;;;;;;-2.30;56.47;99616.41;5112623;28;20023;-59
2022/02/05 07:39:45;;;;;;;44.97;21.30;;;;;;;-2.14;56.19;99618.56;5094460;28;20087;-57
2022/02/05 07:42:10;;;;;;;43.22;21.65;;;;;;;-2.18;55.87;99615.16;5093421;28;20056;-57
2022/02/05 07:44:36;;;;;;;46.50;21.88;;;;;;;-2.22;55.56;99619.63;5093727;28;20067;-57
2022/02/05 07:47:02;;;;;;;47.03;21.75;;;;;;;-2.19;56.01;99609.03;5092400;28;20024;-59
2022/02/05 07:49:35;;;;;;;50.90;22.48;;;;;;;-2.15;55.79;99612.44;5105609;28;20093;-59
2022/02/05 07:52:00;;;;;;;51.78;23.73;;;;;;;-2.08;55.75;99605.22;5113773;28;20108;-55
2022/02/05 07:54:26;;;;;;;50.25;23.95;;;;;;;-2.01;55.47;99606.75;5112838;28;20102;-59
2022/02/05 07:56:51;;;;;;;52.78;21.27;;;;;;;-2.01;55.09;99609.38;5113597;28;20087;-59
2022/02/05 07:59:19;;;;;;;47.08;22.17;;;;;;;-2.04;55.04;99606.84;5111385;28;20081;-60
2022/02/05 08:01:45;;;;;;;50.42;22.42;;;;;;;-2.09;55.63;99599.13;5111954;28;20070;-59
2022/02/05 08:04:11;;;;;;;47.17;22.10;;;;;;;-2.13;55.83;99594.03;5113930;28;20112;-60
2022/02/05 08:06:37;;;;;;;47.55;21.58;;;;;;;-2.13;55.16;99596.66;5111861;28;20428;-60
2022/02/05 08:09:12;;;;;;;48.40;22.33;;;;;;;-2.06;55.30;99606.03;5110409;28;20023;-57
2022/02/05 08:11:43;;;;;;;50.28;22.35;;;;;;;-2.25;55.19;99576.94;5113570;28;20106;-61
2022/02/05 08:14:10;;;;;;;46.90;22.40;;;;;;;-2.22;55.55;99587.31;5113177;28;20074;-62
2022/02/05 08:19:06;;;;;;;49.70;22.90;;;;;;;-2.33;55.48;99600.75;5111307;28;20035;-60
2022/02/05 08:21:32;;;;;;;48.13;22.25;;;;;;;-2.40;56.54;99599.25;5112153;28;20463;-62
2022/02/05 08:23:57;;;;;;;48.70;22.60;;;;;;;-2.47;56.37;99583.69;5112792;28;20126;-60
2022/02/05 08:26:28;;;;;;;43.17;21.58;;;;;;;-2.56;56.29;99576.13;5111705;28;20046;-59
2022/02/05 08:28:54;;;;;;;51.55;22.48;;;;;;;-2.53;56.00;99589.13;5111426;28;20349;-56
2022/02/05 08:31:21;;;;;;;46.28;21.58;;;;;;;-2.57;56.27;99582.25;5112477;28;20388;-60
2022/02/05 08:33:46;;;;;;;48.88;21.15;;;;;;;-2.53;56.01;99583.00;5112307;28;20123;-59
2022/02/05 08:36:12;;;;;;;51.67;22.77;;;;;;;-2.46;55.77;99585.41;5112787;28;20059;-58
2022/02/05 08:38:38;;;;;;;46.97;21.52;;;;;;;-2.64;55.88;99544.03;5098077;28;20046;-59
2022/02/05 08:41:03;;;;;;;41.13;21.60;;;;;;;-2.35;55.43;99577.19;5103133;28;20035;-57
2022/02/05 08:43:30;;;;;;;47.20;21.45;;;;;;;-2.41;55.33;99561.66;5105729;28;20059;-58
2022/02/05 08:45:57;;;;;;;48.17;20.80;;;;;;;-2.31;55.71;99578.81;5110990;28;20119;-56
2022/02/05 08:48:23;;;;;;;39.08;19.30;;;;;;;-2.54;55.27;99529.72;5108811;28;20077;-58
2022/02/05 08:50:48;;;;;;;45.83;20.77;;;;;;;-2.36;55.47;99556.28;5100929;28;20031;-56
2022/02/05 08:53:20;;;;;;;44.13;20.40;;;;;;;-2.27;55.61;99561.22;5112069;27;20081;-55
2022/02/05 08:55:47;;;;;;;38.58;18.55;;;;;;;-2.20;54.67;99559.28;5111022;28;20062;-58
2022/02/05 08:58:13;;;;;;;40.05;19.63;;;;;;;-2.15;54.91;99553.88;5111397;28;20391;-58
2022/02/05 09:00:47;;;;;;;38.28;18.35;;;;;;;-2.15;54.85;99540.78;5103234;28;20023;-59
2022/02/05 09:03:24;;;;;;;34.92;17.52;;;;;;;-2.25;54.52;99504.34;5092905;28;20105;-57
2022/02/05 09:05:50;;;;;;;33.22;17.42;;;;;;;-1.91;53.82;99524.22;5111057;28;20559;-57
2022/02/05 09:08:24;;;;;;;35.35;16.75;;;;;;;-1.75;53.72;99521.91;5110473;28;20110;-58
2022/02/05 09:10:59;;;;;;;33.75;16.65;;;;;;;-1.51;52.23;99519.31;5111695;28;20039;-60
2022/02/05 09:16:02;;;;;;;28.75;14.40;;;;;;;-1.10;51.64;99526.59;5110428;28;20031;-59
2022/02/05 09:18:27;;;;;;;29.65;14.63;;;;;;;-0.98;51.37;99525.28;5111595;28;20043;-56
2022/02/05 09:20:54;;;;;;;28.58;14.70;;;;;;;-0.74;50.02;99510.31;5111662;28;20027;-59
2022/02/05 09:23:19;;;;;;;31.52;14.40;;;;;;;-0.50;49.33;99504.16;5111451;28;20024;-57
2022/02/05 09:25:45;;;;;;;26.80;14.18;;;;;;;-0.47;49.05;99502.28;5108421;28;20035;-57
2022/02/05 09:28:11;;;;;;;26.38;13.82;;;;;;;-0.60;49.59;99503.69;5111313;28;20147;-58
2022/02/05 09:33:22;;;;;;;30.58;14.68;;;;;;;-0.93;50.10;99485.69;5097618;28;20053;-62
2022/02/05 09:35:48;;;;;;;28.55;15.20;;;;;;;-1.09;50.33;99488.03;5110017;28;20028;-53
2022/02/05 09:38:13;;;;;;;27.65;14.38;;;;;;;-1.30;50.77;99473.03;5096909;28;20382;-58
2022/02/05 09:40:39;;;;;;;32.80;14.80;;;;;;;-1.34;50.80;99481.94;5111670;28;20383;-58
2022/02/05 09:43:04;;;;;;;30.52;15.27;;;;;;;-1.50;50.99;99480.78;5110867;28;20028;-55
2022/02/05 09:45:34;;;;;;;31.65;15.05;;;;;;;-1.65;51.58;99477.81;5109157;28;20064;-55
2022/02/05 09:47:59;;;;;;;31.38;15.50;;;;;;;-1.69;52.21;99463.06;5100411;28;20472;-59
2022/02/05 09:50:25;;;;;;;30.25;14.70;;;;;;;-1.66;52.66;99470.84;5111557;28;20070;-60
2022/02/05 09:52:53;;;;;;;29.17;14.40;;;;;;;-1.67;51.68;99456.03;5110509;28;20032;-56
2022/02/05 09:55:18;;;;;;;30.60;14.50;;;;;;;-1.94;52.03;99418.50;5110152;28;20042;-58
2022/02/05 09:57:44;;;;;;;30.02;14.70;;;;;;;-1.82;51.94;99448.69;5103455;28;20066;-55
2022/02/05 10:00:20;;;;;;;28.48;14.07;;;;;;;-1.96;52.66;99429.03;5110021;28;20024;-59
2022/02/05 10:02:54;;;;;;;26.13;13.48;;;;;;;-1.98;52.23;99443.97;5110113;28;20200;-57
2022/02/05 10:05:22;;;;;;;28.77;14.67;;;;;;;-2.00;52.20;99458.06;5110340;28;20051;-54
2022/02/05 10:08:07;;;;;;;27.80;13.57;;;;;;;-2.05;52.66;99435.47;5109116;28;20088;-55
2022/02/05 10:10:44;;;;;;;29.38;13.82;;;;;;;-1.96;52.41;99436.91;5100624;28;20035;-55
2022/02/05 10:13:21;;;;;;;29.05;13.95;;;;;;;-1.99;52.04;99430.91;5110658;28;20039;-59
2022/02/05 10:15:53;;;;;;;27.33;14.18;;;;;;;-2.09;52.52;99438.25;5115112;28;20028;-52
2022/02/05 10:18:39;;;;;;;29.52;14.65;;;;;;;-2.17;53.35;99442.00;5112390;28;20020;-54
2022/02/05 10:21:30;;;;;;;29.70;13.60;;;;;;;-2.18;52.73;99431.56;5105767;28;20043;-57
2022/02/05 10:24:05;;;;;;;29.83;14.45;;;;;;;-2.27;52.70;99430.09;5115098;28;20035;-56
2022/02/05 10:26:36;;;;;;;29.38;14.18;;;;;;;-2.31;53.43;99425.88;5114521;28;20089;-57
2022/02/05 10:29:14;;;;;;;29.05;14.25;;;;;;;-2.32;53.98;99419.75;5110133;28;20115;-57
2022/02/05 10:32:08;;;;;;;26.75;13.77;;;;;;;-2.33;53.92;99425.06;5111617;28;20027;-60
2022/02/05 10:34:53;;;;;;;30.17;14.85;;;;;;;-2.39;53.62;99423.50;5114117;28;20035;-53
2022/02/05 10:37:23;;;;;;;30.92;15.40;;;;;;;-2.43;53.87;99411.41;5114238;28;20084;-53
2022/02/05 10:40:12;;;;;;;28.88;14.80;;;;;;;-2.36;54.32;99404.22;5110582;28;20020;-56
2022/02/05 10:45:29;;;;;;;30.15;13.93;;;;;;;-2.36;53.23;99399.81;5113992;28;20116;-58
2022/02/05 10:47:56;;;;;;;28.40;13.77;;;;;;;-2.36;53.74;99396.34;5114333;28;20099;-54
2022/02/05 10:50:30;;;;;;;29.77;15.02;;;;;;;-2.35;53.73;99379.69;5108651;28;20469;-53
2022/02/05 10:53:17;;;;;;;27.55;14.52;;;;;;;-2.33;53.65;99376.09;5104183;28;20039;-55
2022/02/05 10:56:31;;;;;;;29.88;15.50;;;;;;;-2.31;53.43;99379.50;5114423;28;20044;-56
2022/02/05 11:07:05;;;;;;;29.55;14.57;;;;;;;-2.25;53.64;99365.34;5113951;28;20055;-57
2022/02/05 11:09:30;;;;;;;30.80;14.10;;;;;;;-2.26;52.91;99365.41;5113412;28;20968;-54
2022/02/05 11:18:10;;;;;;;35.05;15.98;;;;;;;-2.23;53.75;99350.41;5113850;28;20122;-56
2022/02/05 11:20:36;;;;;;;28.85;13.85;;;;;;;-2.15;53.68;99346.69;5099511;28;20062;-54
2022/02/05 11:23:08;;;;;;;34.35;15.25;;;;;;;-2.12;53.53;99354.44;5111284;28;20028;-56
2022/02/05 11:25:37;;;;;;;30.73;15.40;;;;;;;-2.15;53.13;99341.44;5113223;27;20039;-56
2022/02/05 11:28:03;;;;;;;28.75;15.43;;;;;;;-2.39;53.34;99299.44;5096717;28;20114;-54
2022/02/05 11:30:39;;;;;;;31.38;15.23;;;;;;;-2.15;53.16;99336.19;5113099;27;20119;-57
2022/02/05 11:33:30;;;;;;;32.35;15.02;;;;;;;-2.11;53.67;99325.50;5102342;28;20464;-53
2022/02/05 11:38:42;;;;;;;26.70;14.23;;;;;;;-2.15;53.69;99329.16;5113707;28;20456;-55
2022/02/05 11:41:24;;;;;;;26.77;14.25;;;;;;;-2.10;53.51;99319.34;5111535;28;20023;-53
2022/02/05 11:44:25;;;;;;;33.15;14.55;;;;;;;-2.06;52.98;99314.84;5104388;28;20028;-57
2022/02/05 11:47:05;;;;;;;30.58;14.68;;;;;;;-2.08;53.17;99308.81;5113191;27;20069;-58
2022/02/05 11:49:57;;;;;;;29.27;15.13;;;;;;;-2.10;53.62;99305.38;5112725;28;20039;-53
2022/02/05 11:52:35;;;;;;;36.15;16.17;;;;;;;-2.18;52.77;99296.00;5090083;28;20614;-55
2022/02/05 11:55:01;;;;;;;30.92;15.63;;;;;;;-2.29;52.70;99298.19;5108754;28;20032;-55
2022/02/05 11:57:44;;;;;;;31.80;15.05;;;;;;;-2.43;52.86;99288.19;5112607;28;20074;-56
2022/02/05 12:00:18;;;;;;;32.33;14.55;;;;;;;-2.45;52.72;99297.88;5097101;28;20103;-62
2022/02/05 12:02:52;;;;;;;25.70;12.98;;;;;;;-2.47;52.77;99299.72;5112230;28;20039;-61
2022/02/05 12:05:20;;;;;;;24.33;11.98;;;;;;;-2.45;52.29;99287.41;5111725;28;20036;-56
2022/02/05 12:08:04;;;;;;;23.70;11.95;;;;;;;-2.39;53.37;99291.56;5112000;28;20035;-58
2022/02/05 12:10:51;;;;;;;27.23;13.07;;;;;;;-2.39;52.88;99296.81;5112151;28;20109;-54
2022/02/05 12:13:21;;;;;;;25.48;11.15;;;;;;;-2.50;51.88;99284.94;5112408;28;20038;-56
2022/02/05 12:16:09;;;;;;;20.30;10.93;;;;;;;-2.42;52.21;99291.66;5099459;28;20128;-56
2022/02/05 12:19:13;;;;;;;25.02;12.15;;;;;;;-2.47;51.96;99287.44;5104910;28;20118;-54
2022/02/05 12:21:56;;;;;;;23.00;11.38;;;;;;;-2.54;52.15;99285.97;5112543;28;20385;-57
2022/02/05 12:24:40;;;;;;;21.63;10.05;;;;;;;-2.65;51.39;99285.50;5111167;28;20031;-54
2022/02/05 12:27:29;;;;;;;21.67;10.18;;;;;;;-2.61;52.68;99285.31;5109555;28;20048;-55
2022/02/05 12:29:54;;;;;;;20.90;8.63;;;;;;;-2.71;51.21;99280.44;5110368;28;20028;-54
2022/02/05 12:32:21;;;;;;;17.00;8.48;;;;;;;-2.75;51.92;99283.19;5111528;28;20084;-55
2022/02/05 12:34:48;;;;;;;18.48;8.63;;;;;;;-2.76;52.02;99286.72;5112014;28;20035;-55
2022/02/05 12:37:13;;;;;;;19.65;9.55;;;;;;;-2.76;51.85;99278.00;5107408;28;20028;-53
2022/02/05 12:39:39;;;;;;;18.75;9.75;;;;;;;-2.77;51.49;99274.50;5111765;28;20410;-56
2022/02/05 12:42:12;;;;;;;20.58;9.80;;;;;;;-2.82;51.80;99268.59;5112016;28;20035;-57
2022/02/05 12:44:39;;;;;;;21.10;10.13;;;;;;;-2.80;52.04;99274.63;5105407;28;20046;-57
2022/02/05 12:47:15;;;;;;;25.50;11.35;;;;;;;-2.79;52.28;99273.72;5107148;28;20478;-65
2022/02/05 12:49:55;;;;;;;22.35;10.45;;;;;;;-2.81;51.69;99274.66;5102917;28;20062;-63
2022/02/05 12:52:28;;;;;;;22.15;10.38;;;;;;;-2.80;51.77;99263.28;5110791;28;20038;-60
2022/02/05 12:54:59;;;;;;;19.77;9.75;;;;;;;-2.84;52.42;99264.28;5108591;28;20039;-63
2022/02/05 12:57:26;;;;;;;23.92;9.75;;;;;;;-2.79;51.85;99260.63;5109973;28;20477;-61
2022/02/05 12:59:52;;;;;;;24.02;10.52;;;;;;;-2.80;52.23;99265.88;5111782;28;20028;-62
2022/02/05 13:02:19;;;;;;;19.30;9.10;;;;;;;-3.08;52.26;99223.19;5111785;28;20440;-59
2022/02/05 13:04:51;;;;;;;18.48;8.80;;;;;;;-2.90;51.83;99260.13;5110985;28;20036;-56
2022/02/05 13:07:24;;;;;;;17.50;9.27;;;;;;;-3.04;52.39;99258.84;5110877;28;20023;-59
2022/02/05 13:10:03;;;;;;;19.85;9.80;;;;;;;-3.47;52.50;99197.44;5110556;28;20460;-57
2022/02/05 13:12:39;;;;;;;19.77;8.85;;;;;;;-3.27;53.22;99262.22;5112168;28;20027;-55
2022/02/05 13:15:18;;;;;;;;;;;;;;;-3.15;53.94;99250.47;5111881;28;20041;-57
2022/02/05 13:24:41;;;;;;;19.95;9.55;;;;;;;-3.60;53.45;99251.94;5111212;28;20132;-54
2022/02/05 13:26:21;;;;;;;20.60;9.80;;;;;;;-3.79;54.18;99249.03;5089666;28;20054;-55
2022/02/05 13:29:36;;;;;;;16.58;8.73;;;;;;;-3.92;54.69;99246.78;5089886;28;20032;-56
2022/02/05 13:34:45;;;;;;;16.65;8.30;;;;;;;-4.15;54.50;99247.50;5109392;28;20031;-56
2022/02/05 13:37:23;;;;;;;15.90;7.88;;;;;;;-4.30;55.53;99238.34;5111442;28;20364;-55
2022/02/05 13:40:00;;;;;;;17.70;8.38;;;;;;;-4.26;55.66;99253.03;5112113;28;20081;-57
2022/02/05 13:42:30;;;;;;;20.67;9.18;;;;;;;-4.32;55.79;99245.38;5111838;28;20028;-52
2022/02/05 13:45:09;;;;;;;19.73;9.13;;;;;;;-4.63;56.08;99196.59;5110436;28;20031;-57
2022/02/05 13:47:49;;;;;;;22.42;9.70;;;;;;;-4.35;56.42;99242.84;5090749;28;20058;-53
2022/02/05 13:50:22;;;;;;;17.88;9.25;;;;;;;-4.42;56.33;99236.06;5091486;28;20085;-55
2022/02/05 13:52:53;;;;;;;21.90;9.85;;;;;;;-4.50;56.09;99239.78;5090813;28;20024;-56
2022/02/05 13:55:24;;;;;;;20.08;8.80;;;;;;;-4.56;56.59;99236.47;5090933;28;20024;-56
2022/02/05 13:58:04;;;;;;;22.58;9.60;;;;;;;-4.64;56.84;99226.22;5092045;28;20100;-57
2022/02/05 14:00:42;;;;;;;24.02;10.10;;;;;;;-4.66;57.39;99225.41;5110966;28;20043;-54
2022/02/05 14:03:09;;;;;;;21.17;9.38;;;;;;;-4.71;56.80;99227.31;5111082;28;20047;-57
2022/02/05 14:06:06;;;;;;;15.88;8.48;;;;;;;-4.77;57.40;99229.19;5111137;28;20088;-56
2022/02/05 14:08:32;;;;;;;20.02;8.90;;;;;;;-4.82;57.52;99220.63;5094978;28;20079;-55
2022/02/05 14:11:00;;;;;;;17.60;8.52;;;;;;;-4.87;57.15;99222.50;5103774;28;20474;-55
2022/02/05 14:13:26;;;;;;;19.55;8.70;;;;;;;-5.08;57.26;99193.44;5090475;28;20067;-56
2022/02/05 14:15:58;;;;;;;16.02;7.80;;;;;;;-4.93;57.47;99222.66;5091079;28;20039;-55
2022/02/05 14:18:25;;;;;;;15.68;8.23;;;;;;;-4.95;57.46;99221.84;5090752;28;20103;-56
2022/02/05 14:21:02;;;;;;;15.73;7.75;;;;;;;-4.94;57.87;99234.88;5090838;28;20608;-53
2022/02/05 14:23:30;;;;;;;17.25;7.85;;;;;;;-4.99;57.73;99223.69;5092014;28;20457;-55
2022/02/05 14:26:16;;;;;;;17.67;7.95;;;;;;;-5.06;57.59;99216.91;5090770;28;20036;-58